Time;durP1;ratioP1;P1;durP2;ratioP2;P2;SDS_P1;SDS_P2;PMS_P1;PMS_P2;Temp;Humidity;BMP_temperature;BMP_pressure;BME280_temperature;BME280_humidity;BME280_pressure;Samples;Min_cycle;Max_cycle;Signal;HPM_P1;HPM_P2
2022/04/08 00:02:04;;;;;;;0.85;0.40;;;;;;;8.69;68.12;96152.59;5093295;28;20028;-73
2022/04/08 00:04:32;;;;;;;1.13;0.65;;;;;;;8.66;68.11;96147.78;5093745;28;20032;-72
2022/04/08 00:06:58;;;;;;;1.45;0.40;;;;;;;8.67;67.87;96154.06;5094407;28;20027;-72
2022/04/08 00:09:23;;;;;;;1.20;0.50;;;;;;;8.72;67.90;96149.16;5093840;28;20061;-73
2022/04/08 00:11:49;;;;;;;0.95;0.38;;;;;;;8.74;66.76;96157.81;5092391;28;20050;-72
2022/04/08 00:14:14;;;;;;;0.88;0.40;;;;;;;8.76;66.97;96161.03;5092646;28;20107;-72
2022/04/08 00:16:39;;;;;;;0.57;0.30;;;;;;;8.79;66.13;96157.59;5093233;28;20024;-72
2022/04/08 00:19:05;;;;;;;1.40;0.47;;;;;;;8.83;65.64;96146.00;5093026;28;20031;-72
2022/04/08 00:21:31;;;;;;;0.93;0.43;;;;;;;8.86;65.26;96151.56;5093417;28;20570;-73
2022/04/08 00:23:57;;;;;;;0.88;0.60;;;;;;;8.90;64.62;96157.94;5093429;28;20016;-72
2022/04/08 00:26:22;;;;;;;0.95;0.40;;;;;;;8.95;64.04;96156.94;5093372;28;20028;-72
2022/04/08 00:28:47;;;;;;;0.75;0.30;;;;;;;8.93;63.58;96157.25;5093201;28;20020;-72
2022/04/08 00:31:13;;;;;;;1.05;0.40;;;;;;;8.91;62.99;96164.22;5093393;28;20099;-72
2022/04/08 00:33:38;;;;;;;0.73;0.40;;;;;;;8.90;62.04;96171.59;5092141;28;20089;-72
2022/04/08 00:36:04;;;;;;;0.85;0.38;;;;;;;8.89;61.55;96172.75;5093226;28;20023;-73
2022/04/08 00:38:29;;;;;;;1.27;0.30;;;;;;;8.88;61.05;96171.16;5093544;28;20081;-72
2022/04/08 00:40:55;;;;;;;1.08;0.30;;;;;;;8.88;61.19;96187.56;5092683;28;20031;-72
2022/04/08 00:43:37;;;;;;;1.38;0.60;;;;;;;8.89;60.89;96188.38;5092771;28;20047;-72
2022/04/08 00:46:05;;;;;;;0.65;0.50;;;;;;;8.90;60.17;96185.28;5093659;28;20024;-72
2022/04/08 00:48:31;;;;;;;1.70;0.50;;;;;;;8.91;60.16;96191.56;5092958;28;20114;-72
2022/04/08 00:50:57;;;;;;;1.42;0.60;;;;;;;8.90;59.76;96179.03;5092815;28;20436;-72
2022/04/08 00:53:24;;;;;;;1.65;0.88;;;;;;;8.90;60.35;96176.28;5092465;28;20032;-72
2022/04/08 00:55:49;;;;;;;1.00;0.55;;;;;;;8.91;60.73;96181.41;5092707;28;20027;-72
2022/04/08 00:58:15;;;;;;;2.47;0.50;;;;;;;8.90;60.40;96188.00;5092616;28;20029;-71
2022/04/08 01:00:42;;;;;;;1.25;0.60;;;;;;;8.91;60.37;96191.56;5092354;28;20620;-72
2022/04/08 01:03:08;;;;;;;2.55;0.82;;;;;;;8.90;59.67;96189.97;5092074;28;20503;-72
2022/04/08 01:05:34;;;;;;;0.80;0.40;;;;;;;8.91;59.07;96205.22;5091106;28;20062;-72
2022/04/08 01:08:01;;;;;;;1.35;0.60;;;;;;;8.90;58.02;96196.22;5092401;28;20031;-72
2022/04/08 01:10:27;;;;;;;1.63;0.50;;;;;;;8.91;57.59;96197.03;5092704;28;20470;-72
2022/04/08 01:12:53;;;;;;;1.75;0.65;;;;;;;8.88;57.07;96205.91;5090830;28;20081;-71
2022/04/08 01:15:22;;;;;;;1.80;0.70;;;;;;;8.86;56.68;96214.44;5092077;28;20127;-72
2022/04/08 01:17:48;;;;;;;2.97;0.70;;;;;;;8.86;56.61;96208.19;5092718;28;20382;-72
2022/04/08 01:20:14;;;;;;;1.90;0.63;;;;;;;8.85;55.94;96215.56;5092593;28;20032;-72
2022/04/08 01:22:40;;;;;;;3.03;0.70;;;;;;;8.82;55.82;96221.72;5092159;28;20036;-72
2022/04/08 01:25:07;;;;;;;1.92;0.82;;;;;;;8.74;55.54;96223.41;5092142;28;20032;-72
2022/04/08 01:27:35;;;;;;;2.35;0.80;;;;;;;8.72;55.16;96228.44;5091827;28;20118;-72
2022/04/08 01:30:01;;;;;;;3.10;0.90;;;;;;;8.66;55.55;96231.72;5092315;28;20063;-72
2022/04/08 01:32:27;;;;;;;1.33;0.85;;;;;;;8.67;55.12;96230.59;5090486;28;20028;-72
2022/04/08 01:34:53;;;;;;;3.30;1.15;;;;;;;8.64;55.61;96235.59;5092655;28;20055;-71
2022/04/08 01:37:19;;;;;;;2.70;0.68;;;;;;;8.62;56.06;96243.31;5091942;28;20028;-72
2022/04/08 01:39:45;;;;;;;2.92;1.05;;;;;;;8.62;55.58;96232.41;5091981;28;20028;-72
2022/04/08 01:42:12;;;;;;;1.77;0.65;;;;;;;8.64;54.56;96235.59;5091189;28;20047;-72
2022/04/08 01:44:39;;;;;;;3.22;0.73;;;;;;;8.63;54.41;96242.19;5091879;28;20036;-72
2022/04/08 01:47:05;;;;;;;2.55;0.90;;;;;;;8.63;54.66;96252.31;5092014;28;20119;-72
2022/04/08 01:49:30;;;;;;;2.85;0.90;;;;;;;8.64;54.02;96241.06;5092361;28;20028;-71
2022/04/08 01:51:56;;;;;;;4.07;1.02;;;;;;;8.62;53.93;96243.31;5091324;28;20482;-71
2022/04/08 01:54:22;;;;;;;3.65;0.90;;;;;;;8.61;53.80;96249.94;5092066;28;20537;-72
2022/04/08 01:56:48;;;;;;;2.85;0.90;;;;;;;8.61;53.47;96249.13;5091580;28;20059;-71
2022/04/08 01:59:13;;;;;;;2.88;1.15;;;;;;;8.58;53.70;96256.06;5091643;28;20036;-72
2022/04/08 02:01:39;;;;;;;4.28;1.00;;;;;;;8.57;52.57;96251.72;5091720;28;20024;-71
2022/04/08 02:04:04;;;;;;;3.67;1.35;;;;;;;8.47;52.52;96263.88;5091453;28;20103;-72
2022/04/08 02:06:34;;;;;;;2.38;0.88;;;;;;;8.42;52.42;96277.72;5091578;28;20103;-71
2022/04/08 02:09:00;;;;;;;;;;;;;;;8.33;52.58;96291.47;5092320;28;20638;-72
2022/04/08 02:11:25;;;;;;;3.30;1.13;;;;;;;8.28;51.53;96294.41;5091543;28;19912;-72
2022/04/08 02:13:51;;;;;;;1.80;0.88;;;;;;;8.22;51.08;96284.81;5091026;28;20103;-71
2022/04/08 02:16:16;;;;;;;3.72;0.70;;;;;;;8.16;50.92;96286.16;5091156;28;20039;-71
2022/04/08 02:18:43;;;;;;;1.80;0.90;;;;;;;8.13;51.10;96286.81;5091527;28;20051;-72
2022/04/08 02:21:09;;;;;;;4.47;1.30;;;;;;;8.07;51.42;96288.13;5091202;28;20202;-71
2022/04/08 02:23:36;;;;;;;2.65;0.95;;;;;;;8.03;51.44;96299.72;5091018;28;20536;-71
2022/04/08 02:26:03;;;;;;;4.53;0.90;;;;;;;8.03;50.85;96293.47;5090798;28;20478;-71
2022/04/08 02:28:28;;;;;;;1.50;0.60;;;;;;;7.99;50.50;96300.72;5090780;28;20324;-71
2022/04/08 02:30:55;;;;;;;3.35;0.95;;;;;;;7.95;50.38;96303.31;5091300;28;20507;-71
2022/04/08 02:33:21;;;;;;;2.72;0.80;;;;;;;7.88;49.89;96305.78;5091023;28;20035;-71
2022/04/08 02:35:47;;;;;;;1.15;0.90;;;;;;;7.86;48.50;96313.50;5091247;28;20024;-71
2022/04/08 02:38:13;;;;;;;5.53;1.58;;;;;;;7.82;48.37;96315.31;5090818;28;20024;-71
2022/04/08 02:40:38;;;;;;;3.85;1.10;;;;;;;7.78;48.75;96319.81;5090957;28;20428;-71
2022/04/08 02:43:04;;;;;;;2.42;0.60;;;;;;;7.77;48.26;96313.53;5090881;28;20050;-71
2022/04/08 02:45:29;;;;;;;2.97;0.93;;;;;;;7.71;49.29;96315.69;5090546;28;20510;-72
2022/04/08 02:47:55;;;;;;;3.20;0.88;;;;;;;7.68;49.52;96321.00;5091130;28;20028;-72
2022/04/08 02:50:21;;;;;;;3.30;0.90;;;;;;;7.60;49.76;96319.91;5090470;28;20039;-71
2022/04/08 02:52:46;;;;;;;3.05;1.20;;;;;;;7.54;49.74;96332.94;5090132;28;20024;-71
2022/04/08 02:55:11;;;;;;;3.35;1.20;;;;;;;7.50;50.07;96328.47;5091092;28;20055;-71
2022/04/08 02:57:45;;;;;;;2.90;0.90;;;;;;;7.46;49.98;96333.78;5090635;28;20020;-71
2022/04/08 03:00:15;;;;;;;2.13;1.02;;;;;;;7.40;50.23;96330.44;5090889;28;20020;-71
2022/04/08 03:02:41;;;;;;;4.97;1.00;;;;;;;7.35;49.88;96336.06;5090351;28;20035;-71
2022/04/08 03:05:07;;;;;;;5.13;1.05;;;;;;;7.32;49.80;96347.63;5090628;28;20020;-72
2022/04/08 03:07:33;;;;;;;3.95;1.10;;;;;;;7.33;48.89;96345.72;5088188;28;20047;-72
2022/04/08 03:09:58;;;;;;;4.50;1.05;;;;;;;7.31;48.81;96343.31;5091112;28;20533;-71
2022/04/08 03:12:24;;;;;;;4.95;1.08;;;;;;;7.25;49.08;96345.44;5086067;28;20028;-72
2022/04/08 03:14:49;;;;;;;2.67;1.00;;;;;;;7.18;48.39;96355.22;5090128;28;20032;-72
2022/04/08 03:17:15;;;;;;;2.33;0.90;;;;;;;7.18;48.10;96357.94;5089694;28;20527;-72
2022/04/08 03:19:40;;;;;;;2.38;0.90;;;;;;;7.19;48.23;96362.28;5090387;28;20032;-71
2022/04/08 03:22:08;;;;;;;2.83;0.77;;;;;;;7.15;47.66;96367.59;5090050;28;20047;-71
2022/04/08 03:24:34;;;;;;;2.33;0.98;;;;;;;7.13;47.51;96367.91;5090460;28;20051;-72
2022/04/08 03:26:59;;;;;;;3.78;0.77;;;;;;;7.17;46.71;96373.50;5090235;28;20209;-71
2022/04/08 03:29:24;;;;;;;1.65;0.60;;;;;;;7.19;46.48;96381.34;5089977;28;20032;-71
2022/04/08 03:31:51;;;;;;;2.45;0.70;;;;;;;7.18;46.10;96387.94;5090393;28;20028;-71
2022/04/08 03:34:17;;;;;;;3.55;0.68;;;;;;;7.13;46.80;96388.91;5088863;28;20044;-72
2022/04/08 03:36:44;;;;;;;3.80;1.00;;;;;;;7.11;46.61;96385.72;5090266;28;20034;-71
2022/04/08 03:39:10;;;;;;;2.67;0.77;;;;;;;7.08;46.36;96383.63;5090297;28;20024;-72
2022/04/08 03:41:36;;;;;;;5.55;1.23;;;;;;;7.07;46.19;96382.03;5089832;28;20533;-71
2022/04/08 03:44:01;;;;;;;4.65;1.00;;;;;;;7.03;46.44;96387.34;5088878;28;20505;-72
2022/04/08 03:46:27;;;;;;;4.60;0.88;;;;;;;7.02;46.77;96385.75;5090138;28;20054;-72
2022/04/08 03:48:52;;;;;;;3.22;1.08;;;;;;;7.03;46.17;96384.63;5090012;28;20062;-72
2022/04/08 03:51:17;;;;;;;7.43;2.15;;;;;;;6.98;46.59;96404.66;5088815;28;20113;-72
2022/04/08 03:53:43;;;;;;;5.93;1.77;;;;;;;6.93;47.37;96406.75;5089752;28;20016;-71
2022/04/08 03:56:08;;;;;;;3.92;1.20;;;;;;;6.91;46.92;96409.00;5090258;28;20408;-71
2022/04/08 03:58:34;;;;;;;5.32;1.40;;;;;;;6.84;47.35;96409.50;5089952;28;20062;-72
2022/04/08 04:00:59;;;;;;;4.53;1.40;;;;;;;6.78;47.44;96417.00;5089768;28;20028;-72
2022/04/08 04:03:25;;;;;;;5.75;1.10;;;;;;;6.73;48.07;96417.19;5090106;28;20359;-72
2022/04/08 04:05:50;;;;;;;9.60;1.67;;;;;;;6.70;47.97;96420.56;5090039;28;20717;-71
2022/04/08 04:08:18;;;;;;;4.45;1.40;;;;;;;6.68;48.11;96422.81;5090008;28;20032;-72
2022/04/08 04:10:46;;;;;;;3.97;1.63;;;;;;;6.66;48.45;96431.28;5090092;28;20470;-71
2022/04/08 04:13:13;;;;;;;6.18;1.63;;;;;;;6.66;48.30;96422.34;5089172;28;20020;-71
2022/04/08 04:15:38;;;;;;;5.00;1.30;;;;;;;6.70;48.81;96426.03;5088386;28;20044;-71
2022/04/08 04:18:04;;;;;;;4.45;1.40;;;;;;;6.71;49.41;96441.25;5089970;28;20488;-72
2022/04/08 04:20:30;;;;;;;5.70;1.70;;;;;;;6.69;49.53;96424.41;5090309;28;20024;-72
2022/04/08 04:22:56;;;;;;;3.60;1.80;;;;;;;6.70;49.86;96434.19;5089440;28;20028;-71
2022/04/08 04:25:21;;;;;;;3.47;1.52;;;;;;;6.72;49.54;96442.03;5088597;28;20028;-72
2022/04/08 04:27:47;;;;;;;4.88;1.23;;;;;;;6.72;50.07;96458.38;5088849;28;20101;-71
2022/04/08 04:30:13;;;;;;;3.47;1.10;;;;;;;6.72;50.35;96463.81;5089566;28;20032;-72
2022/04/08 04:32:38;;;;;;;3.25;1.33;;;;;;;6.76;50.72;96462.84;5089073;28;20028;-72
2022/04/08 04:35:06;;;;;;;3.53;1.27;;;;;;;6.74;50.92;96467.81;5090097;28;20146;-71
2022/04/08 04:37:36;;;;;;;2.72;1.02;;;;;;;6.75;51.22;96483.03;5089717;28;20024;-71
2022/04/08 04:40:02;;;;;;;2.72;1.15;;;;;;;6.75;51.09;96477.59;5089598;28;20023;-71
2022/04/08 04:42:28;;;;;;;7.35;1.40;;;;;;;6.78;51.11;96487.84;5089698;28;20101;-72
2022/04/08 04:44:57;;;;;;;4.25;1.15;;;;;;;6.81;50.70;96479.03;5089681;28;20111;-71
2022/04/08 04:47:23;;;;;;;3.53;1.33;;;;;;;6.82;50.88;96494.28;5090208;28;20028;-71
2022/04/08 04:49:49;;;;;;;3.70;1.30;;;;;;;6.83;51.08;96501.31;5091664;28;20473;-72
2022/04/08 04:52:15;;;;;;;5.35;1.70;;;;;;;6.89;51.04;96498.44;5093048;28;20032;-72
2022/04/08 04:54:41;;;;;;;6.07;1.70;;;;;;;6.90;51.19;96502.78;5093370;28;20023;-71
2022/04/08 04:57:07;;;;;;;6.72;1.52;;;;;;;6.88;50.64;96507.75;5092898;28;20024;-72
2022/04/08 04:59:33;;;;;;;6.45;1.70;;;;;;;6.93;50.42;96510.31;5093264;28;20374;-71
2022/04/08 05:01:59;;;;;;;4.07;1.30;;;;;;;6.93;50.81;96499.41;5092511;28;20016;-72
2022/04/08 05:04:24;;;;;;;5.70;1.52;;;;;;;6.94;50.76;96512.69;5092754;28;20107;-72
2022/04/08 05:06:50;;;;;;;5.25;1.80;;;;;;;6.97;50.19;96514.78;5093188;28;20016;-72
2022/04/08 05:09:15;;;;;;;4.70;1.27;;;;;;;7.01;50.30;96517.69;5093076;28;20034;-72
2022/04/08 05:11:41;;;;;;;6.85;1.60;;;;;;;7.04;50.01;96516.25;5092568;28;20384;-72
2022/04/08 05:14:06;;;;;;;4.95;1.48;;;;;;;7.11;49.88;96519.28;5092695;28;20426;-72
2022/04/08 05:16:31;;;;;;;6.00;1.80;;;;;;;7.10;50.06;96518.50;5093290;28;20024;-71
2022/04/08 05:18:57;;;;;;;7.68;1.92;;;;;;;7.19;49.58;96525.84;5091627;28;20020;-71
2022/04/08 05:21:23;;;;;;;6.50;2.10;;;;;;;7.21;49.11;96535.31;5091706;28;20054;-71
2022/04/08 05:23:48;;;;;;;7.20;3.38;;;;;;;7.23;49.07;96538.53;5091942;28;20110;-72
2022/04/08 05:26:15;;;;;;;9.55;4.18;;;;;;;7.27;48.97;96544.94;5092787;28;20028;-71
2022/04/08 05:28:41;;;;;;;6.95;1.55;;;;;;;7.30;48.73;96538.84;5092558;28;20501;-71
2022/04/08 05:31:06;;;;;;;16.92;6.80;;;;;;;7.31;48.85;96550.56;5092328;28;20028;-72
2022/04/08 05:33:32;;;;;;;8.38;2.70;;;;;;;7.37;48.20;96546.53;5092223;28;20367;-72
2022/04/08 05:35:57;;;;;;;10.45;2.75;;;;;;;7.38;48.54;96561.78;5092478;28;20056;-72
2022/04/08 05:38:23;;;;;;;5.15;2.08;;;;;;;7.44;47.27;96565.13;5092564;28;20081;-72
2022/04/08 05:40:49;;;;;;;4.43;1.00;;;;;;;7.51;47.52;96559.22;5091783;28;20099;-72
2022/04/08 05:43:15;;;;;;;7.20;3.17;;;;;;;7.53;47.43;96568.66;5092234;28;20036;-72
2022/04/08 05:45:41;;;;;;;7.57;2.70;;;;;;;7.57;47.41;96579.72;5092421;28;20028;-72
2022/04/08 05:48:07;;;;;;;13.88;3.45;;;;;;;7.62;46.92;96579.56;5092283;28;20028;-72
2022/04/08 05:50:33;;;;;;;8.27;3.72;;;;;;;7.64;46.77;96576.53;5091967;28;20043;-71
2022/04/08 05:52:59;;;;;;;9.95;3.70;;;;;;;7.69;46.83;96577.13;5091163;28;20012;-70
2022/04/08 05:55:25;;;;;;;6.72;2.70;;;;;;;7.74;47.44;96578.91;5092397;28;20047;-72
2022/04/08 05:57:53;;;;;;;4.53;1.58;;;;;;;7.79;46.24;96580.66;5092315;28;20016;-71
2022/04/08 06:00:20;;;;;;;4.93;1.77;;;;;;;7.82;45.77;96580.00;5091781;28;20430;-72
2022/04/08 06:02:47;;;;;;;4.78;1.50;;;;;;;7.83;46.33;96593.31;5091022;28;20707;-71
2022/04/08 06:05:18;;;;;;;6.80;2.35;;;;;;;7.84;46.44;96584.00;5091823;28;20008;-71
2022/04/08 06:07:52;;;;;;;6.68;2.00;;;;;;;7.88;46.00;96590.44;5091957;28;20054;-71
2022/04/08 06:10:18;;;;;;;4.95;1.50;;;;;;;7.96;45.51;96591.53;5090108;28;20032;-71
2022/04/08 06:12:51;;;;;;;5.32;1.40;;;;;;;8.03;45.77;96600.03;5091357;28;20115;-71
2022/04/08 06:15:17;;;;;;;5.47;1.60;;;;;;;8.08;45.92;96607.25;5091426;28;20016;-71
2022/04/08 06:17:42;;;;;;;5.68;1.95;;;;;;;8.13;46.38;96607.09;5091671;28;20024;-71
2022/04/08 06:20:10;;;;;;;4.18;2.00;;;;;;;8.26;45.60;96597.06;5091668;28;20028;-72
2022/04/08 06:22:39;;;;;;;6.30;1.70;;;;;;;8.37;45.22;96596.69;5090783;28;20055;-71
2022/04/08 06:25:10;;;;;;;4.88;1.70;;;;;;;8.47;44.96;96605.34;5091955;28;20024;-71
2022/04/08 06:27:35;;;;;;;4.35;1.40;;;;;;;8.56;44.43;96620.94;5091503;28;20048;-72
2022/04/08 06:30:07;;;;;;;2.75;1.25;;;;;;;8.67;44.83;96619.41;5090975;28;20512;-71
2022/04/08 06:32:33;;;;;;;4.13;1.40;;;;;;;8.74;45.11;96627.91;5090694;28;20130;-71
2022/04/08 06:34:59;;;;;;;3.30;0.98;;;;;;;8.85;43.14;96625.59;5090249;28;20541;-71
2022/04/08 06:37:28;;;;;;;3.97;1.23;;;;;;;8.91;44.11;96626.22;5085816;28;20524;-73
2022/04/08 06:39:54;;;;;;;4.22;1.92;;;;;;;9.02;42.39;96634.84;5090608;28;20050;-70
2022/04/08 06:42:19;;;;;;;4.63;0.90;;;;;;;9.04;43.14;96629.84;5088851;28;20031;-71
2022/04/08 06:44:45;;;;;;;4.18;1.13;;;;;;;9.11;43.41;96626.56;5090765;28;20514;-71
2022/04/08 06:47:10;;;;;;;5.75;1.10;;;;;;;9.18;43.65;96622.19;5091102;28;20021;-71
2022/04/08 06:49:36;;;;;;;6.35;1.50;;;;;;;9.22;43.27;96634.06;5090324;28;20107;-71
2022/04/08 06:52:01;;;;;;;2.20;1.10;;;;;;;9.27;42.61;96627.59;5089714;28;20043;-76
2022/04/08 06:54:28;;;;;;;3.83;1.15;;;;;;;9.29;42.78;96641.75;5089841;28;20061;-72
2022/04/08 06:56:54;;;;;;;4.45;1.27;;;;;;;9.32;42.75;96656.69;5089589;28;20535;-72
2022/04/08 06:59:19;;;;;;;2.83;1.15;;;;;;;9.32;42.28;96643.00;5089741;28;20028;-70
2022/04/08 07:01:45;;;;;;;4.68;1.08;;;;;;;9.35;41.68;96650.56;5085966;28;20043;-71
2022/04/08 07:04:10;;;;;;;3.47;1.65;;;;;;;9.37;42.63;96648.28;5085706;28;20111;-73
2022/04/08 07:06:35;;;;;;;7.22;2.15;;;;;;;9.49;42.37;96674.91;5087109;28;20028;-72
2022/04/08 07:09:01;;;;;;;3.95;1.30;;;;;;;9.57;42.00;96651.38;5091088;28;20081;-73
2022/04/08 07:11:27;;;;;;;3.35;1.02;;;;;;;9.49;40.63;96653.03;5088058;28;20624;-72
2022/04/08 07:13:52;;;;;;;3.38;1.30;;;;;;;9.46;41.85;96656.44;5085626;28;20028;-70
2022/04/08 07:16:17;;;;;;;4.15;0.93;;;;;;;9.43;41.08;96652.44;5088897;28;20038;-72
2022/04/08 07:18:43;;;;;;;3.05;1.13;;;;;;;9.49;41.55;96664.78;5086825;28;20031;-74
2022/04/08 07:21:09;;;;;;;4.15;1.27;;;;;;;9.57;42.25;96665.06;5089715;28;20119;-75
2022/04/08 07:23:36;;;;;;;5.00;1.70;;;;;;;9.65;41.91;96670.47;5088409;28;20036;-74
2022/04/08 07:26:02;;;;;;;4.55;1.17;;;;;;;9.75;42.59;96671.19;5089877;28;20028;-73
2022/04/08 07:28:28;;;;;;;6.38;1.40;;;;;;;9.79;41.58;96689.34;5082963;28;20110;-71
2022/04/08 07:30:53;;;;;;;3.10;1.02;;;;;;;9.77;41.24;96686.13;5089059;28;20042;-71
2022/04/08 07:33:19;;;;;;;2.80;0.93;;;;;;;9.81;42.13;96694.47;5088548;28;20024;-72
2022/04/08 07:35:44;;;;;;;3.53;0.95;;;;;;;9.80;41.01;96679.19;5088394;28;20024;-71
2022/04/08 07:38:10;;;;;;;5.78;1.10;;;;;;;9.89;41.65;96687.34;5085479;28;20433;-72
2022/04/08 07:40:35;;;;;;;4.75;1.30;;;;;;;9.98;40.96;96690.81;5089593;28;20024;-71
2022/04/08 07:43:01;;;;;;;3.47;1.15;;;;;;;10.02;41.44;96705.41;5087373;28;20051;-76
2022/04/08 07:45:30;;;;;;;4.03;1.10;;;;;;;10.06;41.53;96703.59;5086682;28;20071;-71
2022/04/08 07:47:58;;;;;;;3.42;0.88;;;;;;;9.98;40.09;96713.50;5083727;28;20036;-71
2022/04/08 07:50:26;;;;;;;4.88;1.10;;;;;;;9.90;41.25;96706.16;5083343;28;20519;-71
2022/04/08 07:52:53;;;;;;;6.05;0.98;;;;;;;9.88;40.73;96729.56;5079498;28;20435;-72
2022/04/08 07:55:20;;;;;;;3.67;1.02;;;;;;;9.90;41.53;96722.59;5089528;28;20052;-75
2022/04/08 07:57:50;;;;;;;5.32;1.20;;;;;;;9.98;41.50;96720.94;5083033;28;20036;-77
2022/04/08 08:00:21;;;;;;;3.58;1.20;;;;;;;10.06;42.01;96725.53;5087375;28;20028;-73
2022/04/08 08:02:48;;;;;;;4.63;1.70;;;;;;;10.22;41.47;96733.91;5085519;28;20032;-70
2022/04/08 08:05:13;;;;;;;2.92;1.20;;;;;;;10.33;40.93;96730.75;5084554;28;20035;-74
2022/04/08 08:07:53;;;;;;;3.95;1.40;;;;;;;10.38;40.63;96725.88;5088432;28;20036;-72
2022/04/08 08:10:24;;;;;;;2.22;1.00;;;;;;;10.47;39.01;96738.72;5089324;28;20020;-72
2022/04/08 08:12:51;;;;;;;4.45;1.45;;;;;;;10.47;39.88;96735.97;5088177;28;20028;-71
2022/04/08 08:15:18;;;;;;;4.70;1.45;;;;;;;10.47;39.31;96741.44;5087219;28;20081;-72
2022/04/08 08:17:43;;;;;;;2.50;1.10;;;;;;;10.53;38.54;96753.81;5089166;28;20103;-73
2022/04/08 08:20:10;;;;;;;1.48;0.68;;;;;;;10.51;38.02;96756.91;5089433;28;20108;-74
2022/04/08 08:22:36;;;;;;;7.22;2.15;;;;;;;10.46;38.35;96772.75;5089627;28;20051;-75
2022/04/08 08:25:06;;;;;;;2.10;0.75;;;;;;;10.45;37.74;96776.63;5092149;28;20032;-77
2022/04/08 08:27:46;;;;;;;2.10;0.73;;;;;;;10.47;37.73;96768.88;5091944;28;20058;-71
2022/04/08 08:30:14;;;;;;;3.60;1.00;;;;;;;10.49;38.02;96755.63;5093639;28;20092;-72
2022/04/08 08:32:42;;;;;;;3.28;0.90;;;;;;;10.61;38.19;96771.31;5091988;28;20032;-72
2022/04/08 08:35:09;;;;;;;2.35;0.75;;;;;;;10.66;37.36;96752.72;5092205;28;20046;-73
2022/04/08 08:37:36;;;;;;;2.63;1.27;;;;;;;10.71;38.79;96773.63;5091114;28;20034;-70
2022/04/08 08:40:03;;;;;;;7.05;3.70;;;;;;;10.80;37.52;96762.59;5092334;28;21289;-70
2022/04/08 08:42:29;;;;;;;3.30;0.63;;;;;;;10.86;37.12;96777.66;5090737;28;20036;-70
2022/04/08 08:44:55;;;;;;;2.38;0.60;;;;;;;10.70;36.48;96789.28;5091907;28;20040;-70
2022/04/08 08:47:22;;;;;;;3.72;0.80;;;;;;;10.60;36.27;96777.94;5091884;28;20024;-70
2022/04/08 08:49:50;;;;;;;3.38;0.95;;;;;;;10.61;38.13;96771.31;5092305;28;20474;-70
2022/04/08 08:52:17;;;;;;;3.95;1.98;;;;;;;10.67;36.74;96784.47;5091751;28;20028;-71
2022/04/08 08:54:43;;;;;;;2.90;0.90;;;;;;;10.78;37.68;96767.59;5090645;28;20085;-72
2022/04/08 08:57:10;;;;;;;3.05;0.90;;;;;;;10.90;37.12;96767.63;5091222;28;20032;-70
2022/04/08 08:59:36;;;;;;;2.10;0.82;;;;;;;11.02;36.03;96775.06;5091498;28;20431;-68
2022/04/08 09:02:03;;;;;;;2.53;0.80;;;;;;;11.21;36.92;96769.03;5091095;28;20035;-69
2022/04/08 09:04:29;;;;;;;3.38;0.90;;;;;;;11.45;37.22;96772.94;5088464;28;20033;-70
2022/04/08 09:06:54;;;;;;;2.25;0.90;;;;;;;11.71;37.39;96763.53;5091662;28;20409;-71
2022/04/08 09:09:32;;;;;;;4.18;1.30;;;;;;;11.96;36.11;96778.00;5092021;28;20028;-69
2022/04/08 09:12:14;;;;;;;2.38;1.15;;;;;;;12.17;35.29;96786.13;5089522;28;20035;-71
2022/04/08 09:14:48;;;;;;;1.98;0.43;;;;;;;12.21;34.43;96784.28;5090156;28;20081;-70
2022/04/08 09:17:16;;;;;;;2.15;0.60;;;;;;;12.14;34.48;96788.78;5090404;28;20031;-71
2022/04/08 09:19:41;;;;;;;3.13;0.90;;;;;;;12.06;34.97;96798.75;5091013;28;20469;-71
2022/04/08 09:22:09;;;;;;;3.08;0.80;;;;;;;12.04;34.75;96787.28;5089409;28;20028;-70
2022/04/08 09:24:34;;;;;;;4.60;1.27;;;;;;;11.95;35.14;96794.84;5089482;28;20028;-70
2022/04/08 09:27:01;;;;;;;3.95;1.40;;;;;;;11.88;35.65;96784.44;5088839;28;20024;-73
2022/04/08 09:29:27;;;;;;;2.17;0.70;;;;;;;11.89;35.39;96797.03;5088304;28;20039;-77
2022/04/08 09:31:56;;;;;;;3.03;1.17;;;;;;;11.80;34.51;96797.16;5085782;28;20535;-71
2022/04/08 09:34:22;;;;;;;2.55;0.82;;;;;;;11.75;34.77;96808.38;5088899;28;20024;-71
2022/04/08 09:36:48;;;;;;;2.47;0.90;;;;;;;11.72;35.59;96807.13;5091687;28;20386;-69
2022/04/08 09:39:14;;;;;;;3.10;1.00;;;;;;;11.68;35.11;96794.41;5091213;28;20020;-70
2022/04/08 09:41:41;;;;;;;4.40;2.30;;;;;;;11.58;35.13;96792.94;5090082;28;20386;-71
2022/04/08 09:44:09;;;;;;;3.25;0.98;;;;;;;11.60;35.51;96799.69;5090855;28;20066;-72
2022/04/08 09:46:36;;;;;;;3.22;0.90;;;;;;;11.79;35.88;96792.03;5092978;28;20073;-71
2022/04/08 09:49:04;;;;;;;3.03;0.88;;;;;;;11.96;35.22;96804.69;5090220;28;20063;-73
2022/04/08 09:51:39;;;;;;;3.08;1.23;;;;;;;12.06;35.35;96782.25;5089849;28;20079;-71
2022/04/08 09:54:15;;;;;;;3.20;1.08;;;;;;;12.27;35.53;96793.06;5091600;28;20074;-73
2022/04/08 09:56:43;;;;;;;3.15;0.80;;;;;;;12.09;34.22;96789.00;5085127;28;20040;-71
2022/04/08 09:59:15;;;;;;;3.15;1.30;;;;;;;11.93;34.22;96786.94;5084109;28;20501;-73
2022/04/08 10:01:46;;;;;;;3.30;1.35;;;;;;;11.90;34.83;96787.63;5089726;28;20028;-71
2022/04/08 10:04:12;;;;;;;2.55;0.90;;;;;;;11.88;34.82;96833.88;5087640;28;20039;-73
2022/04/08 10:06:39;;;;;;;2.60;0.80;;;;;;;11.75;33.62;96809.19;5091160;28;20397;-73
2022/04/08 10:09:07;;;;;;;3.47;0.88;;;;;;;11.68;34.62;96792.47;5090568;28;20519;-71
2022/04/08 10:11:59;;;;;;;4.30;1.02;;;;;;;11.82;35.56;96797.63;5091258;28;20158;-72
2022/04/08 10:14:35;;;;;;;1.88;0.90;;;;;;;11.80;34.27;96801.88;5088530;28;20028;-72
2022/04/08 10:17:02;;;;;;;2.45;0.60;;;;;;;11.69;34.37;96801.50;5088592;28;20101;-74
2022/04/08 10:19:31;;;;;;;2.92;0.90;;;;;;;11.66;35.46;96807.69;5089001;28;20040;-76
2022/04/08 10:21:56;;;;;;;1.95;0.80;;;;;;;11.65;34.89;96795.09;5090263;28;20024;-74
2022/04/08 10:24:28;;;;;;;3.03;1.27;;;;;;;11.56;34.77;96792.47;5089901;28;20059;-74
2022/04/08 10:27:09;;;;;;;2.47;0.90;;;;;;;11.57;35.41;96797.66;5090238;28;20032;-75
2022/04/08 10:29:36;;;;;;;3.35;1.20;;;;;;;11.66;35.78;96797.53;5090239;28;20039;-74
2022/04/08 10:32:13;;;;;;;1.63;1.00;;;;;;;11.80;35.12;96797.16;5090177;28;20020;-74
2022/04/08 10:34:39;;;;;;;3.35;1.60;;;;;;;11.85;34.77;96805.16;5088971;28;20147;-74
2022/04/08 10:37:26;;;;;;;7.38;2.80;;;;;;;11.87;35.36;96805.63;5087943;28;20103;-72
2022/04/08 10:40:05;;;;;;;5.32;2.90;;;;;;;11.88;34.80;96809.16;5087151;28;20059;-74
2022/04/08 10:42:34;;;;;;;1.10;0.55;;;;;;;11.89;34.13;96819.81;5090216;28;20493;-75
2022/04/08 10:45:10;;;;;;;3.20;1.10;;;;;;;11.94;34.36;96824.25;5089446;28;20052;-74
2022/04/08 10:47:46;;;;;;;3.42;1.35;;;;;;;11.92;33.37;96815.56;5086863;28;20368;-73
2022/04/08 10:50:22;;;;;;;4.75;1.80;;;;;;;11.87;33.47;96822.09;5090256;28;20028;-75
2022/04/08 10:52:49;;;;;;;3.80;1.23;;;;;;;11.86;33.25;96823.25;5089083;28;20044;-73
2022/04/08 10:55:14;;;;;;;3.10;1.20;;;;;;;11.86;33.11;96808.69;5086868;28;20036;-72
2022/04/08 10:57:44;;;;;;;3.58;1.40;;;;;;;11.97;33.27;96829.06;5088894;28;20024;-74
2022/04/08 11:00:12;;;;;;;3.10;0.80;;;;;;;12.18;33.57;96841.91;5088803;28;20466;-81
2022/04/08 11:02:43;;;;;;;1.70;0.80;;;;;;;12.36;32.93;96821.22;5089284;28;20036;-73
2022/04/08 11:05:10;;;;;;;13.52;4.55;;;;;;;12.44;32.47;96837.94;5089210;28;20379;-71
2022/04/08 11:07:40;;;;;;;4.63;1.10;;;;;;;12.41;32.60;96836.69;5090849;28;20035;-75
2022/04/08 11:10:12;;;;;;;4.07;1.23;;;;;;;12.53;33.00;96833.09;5085868;28;20036;-73
2022/04/08 11:12:52;;;;;;;8.90;2.60;;;;;;;12.69;32.95;96833.16;5087783;28;20052;-72
2022/04/08 11:15:23;;;;;;;5.47;1.30;;;;;;;12.63;32.44;96826.28;5089516;28;20490;-74
2022/04/08 11:17:49;;;;;;;11.38;4.75;;;;;;;12.63;32.71;96823.53;5089643;28;20020;-77
2022/04/08 11:20:16;;;;;;;2.33;1.08;;;;;;;12.59;30.79;96833.63;5089482;28;20496;-74
2022/04/08 11:22:47;;;;;;;3.83;1.33;;;;;;;12.45;31.42;96818.31;5089839;28;20020;-73
2022/04/08 11:25:28;;;;;;;3.05;1.10;;;;;;;12.61;32.22;96832.16;5089819;28;20470;-73
2022/04/08 11:27:59;;;;;;;3.85;1.00;;;;;;;12.83;32.82;96827.25;5090055;28;20024;-74
2022/04/08 11:30:25;;;;;;;2.75;1.40;;;;;;;12.88;31.89;96821.47;5089254;28;20032;-74
2022/04/08 11:32:51;;;;;;;3.88;1.42;;;;;;;12.79;31.33;96816.16;5087673;28;20035;-73
2022/04/08 11:35:16;;;;;;;1.75;1.20;;;;;;;12.67;31.48;96824.44;5088008;28;20136;-73
2022/04/08 11:37:42;;;;;;;3.78;1.48;;;;;;;12.78;33.14;96816.47;5089487;28;20044;-73
2022/04/08 11:40:08;;;;;;;2.80;1.00;;;;;;;13.07;33.51;96807.03;5090049;28;20032;-73